^^
Datos históricos de la estación: Murcia-Puente Tocinos
Diario Informe para Marzo 15, 2019 Unidades:  Métrico    Inglés   Ambas
Diario Semanal Mensual Anual Configurable
  Máximo: Mínimo: Media:
Temperatura: 25.1 °C 11.9 °C 17.7 °C
Punto de rocio: 7.4 °C -2.8 °C 1.7 °C
Humedad: 70% 19% 37%
Velocidad viento: 19.3km/h 0.0km/h 7.2km/h
Racha viento: 29.6km/h - -
Viento- - South
Presión: 1024.9 hPa 1021.1 hPa -
Precipitación: 0.0 mm    
Historical Graphs
 
 
Tabla de datos para Marzo 15, 2019
Hora Temperatura Punto de rocio Presión Viento Velocidad viento Racha viento Humedad Intensidad lluvia(por hora) Nubes
00:00 13.0 °C 7.4 °C 1024.9 hPa SW 9.7 km/h 16.1 km/h 69% 0.0 mm CLR
00:05 12.9 °C 7.1 °C 1024.8 hPa SW 9.5 km/h 14.8 km/h 68% 0.0 mm CLR
00:10 12.8 °C 7.1 °C 1024.8 hPa SSW 8.4 km/h 11.1 km/h 68% 0.0 mm CLR
00:15 12.8 °C 7.1 °C 1024.8 hPa SSW 8.4 km/h 14.8 km/h 68% 0.0 mm CLR
00:20 12.8 °C 7.1 °C 1024.8 hPa SW 9.5 km/h 14.8 km/h 68% 0.0 mm CLR
00:25 12.8 °C 7.1 °C 1024.8 hPa SW 9.5 km/h 17.2 km/h 68% 0.0 mm CLR
00:30 12.7 °C 6.9 °C 1024.8 hPa SW 10.0 km/h 13.0 km/h 68% 0.0 mm CLR
00:35 12.7 °C 6.9 °C 1024.7 hPa SSW 10.0 km/h 13.0 km/h 68% 0.0 mm CLR
00:40 12.7 °C 7.2 °C 1024.7 hPa SW 10.0 km/h 11.9 km/h 69% 0.0 mm CLR
00:45 12.7 °C 7.2 °C 1024.7 hPa SW 10.0 km/h 15.6 km/h 69% 0.0 mm CLR
00:50 12.7 °C 7.2 °C 1024.6 hPa WSW 10.0 km/h 14.8 km/h 69% 0.0 mm CLR
00:55 12.7 °C 7.4 °C 1024.6 hPa SW 10.0 km/h 18.5 km/h 70% 0.0 mm CLR
01:00 12.7 °C 7.4 °C 1024.6 hPa SW 9.7 km/h 14.5 km/h 70% 0.0 mm CLR
01:05 12.7 °C 7.4 °C 1024.6 hPa WSW 9.5 km/h 9.3 km/h 70% 0.0 mm CLR
01:10 12.7 °C 7.4 °C 1024.6 hPa SW 6.9 km/h 13.0 km/h 70% 0.0 mm CLR
01:15 12.7 °C 7.4 °C 1024.6 hPa SW 6.9 km/h 9.3 km/h 70% 0.0 mm CLR
01:20 12.7 °C 7.4 °C 1024.6 hPa SW 6.9 km/h 13.0 km/h 70% 0.0 mm CLR
01:25 12.7 °C 7.4 °C 1024.6 hPa WSW 6.9 km/h 9.5 km/h 70% 0.0 mm CLR
01:30 12.6 °C 7.3 °C 1024.6 hPa SW 6.9 km/h 9.3 km/h 70% 0.0 mm CLR
01:35 12.4 °C 7.1 °C 1024.5 hPa SSW 6.9 km/h 13.0 km/h 70% 0.0 mm CLR
01:40 12.5 °C 7.2 °C 1024.5 hPa SSW 7.6 km/h 14.8 km/h 70% 0.0 mm CLR
01:45 12.5 °C 6.9 °C 1024.5 hPa SW 7.6 km/h 16.7 km/h 69% 0.0 mm CLR
01:50 12.4 °C 6.9 °C 1024.5 hPa SSW 10.0 km/h 18.5 km/h 69% 0.0 mm CLR
01:55 12.3 °C 6.8 °C 1024.5 hPa SW 10.0 km/h 18.0 km/h 69% 0.0 mm CLR
02:00 12.2 °C 6.7 °C 1024.5 hPa SSW 11.3 km/h 19.3 km/h 69% 0.0 mm CLR
02:05 12.1 °C 6.8 °C 1024.3 hPa SW 11.1 km/h 11.1 km/h 70% 0.0 mm CLR
02:10 12.1 °C 6.6 °C 1024.3 hPa South 10.3 km/h 14.8 km/h 69% 0.0 mm CLR
02:15 12.2 °C 6.7 °C 1024.3 hPa WSW 10.3 km/h 14.8 km/h 69% 0.0 mm CLR
02:20 12.2 °C 6.7 °C 1024.2 hPa SW 10.0 km/h 13.0 km/h 69% 0.0 mm CLR
02:25 12.2 °C 6.4 °C 1024.2 hPa SSW 10.0 km/h 14.8 km/h 68% 0.0 mm CLR
02:30 12.2 °C 6.4 °C 1024.2 hPa SW 10.3 km/h 18.0 km/h 68% 0.0 mm CLR
02:35 12.2 °C 6.4 °C 1024.2 hPa SW 10.3 km/h 14.8 km/h 68% 0.0 mm CLR
02:40 12.1 °C 6.4 °C 1024.2 hPa SW 10.0 km/h 14.8 km/h 68% 0.0 mm CLR
02:45 12.0 °C 6.1 °C 1024.2 hPa SW 10.0 km/h 14.8 km/h 67% 0.0 mm CLR
02:50 11.9 °C 5.9 °C 1024.1 hPa WSW 10.3 km/h 13.0 km/h 67% 0.0 mm CLR
02:55 12.1 °C 5.7 °C 1024.1 hPa SW 10.3 km/h 11.1 km/h 65% 0.0 mm CLR
03:00 12.2 °C 5.3 °C 1024.1 hPa SW 9.7 km/h 14.5 km/h 63% 0.0 mm CLR
03:05 12.4 °C 4.8 °C 1023.9 hPa SSW 9.5 km/h 18.5 km/h 60% 0.0 mm CLR
03:10 12.6 °C 4.6 °C 1023.9 hPa SW 8.4 km/h 15.6 km/h 58% 0.0 mm CLR
03:15 12.7 °C 4.2 °C 1023.9 hPa SW 8.4 km/h 20.4 km/h 56% 0.0 mm CLR
03:20 12.9 °C 3.8 °C 1023.8 hPa SW 10.0 km/h 14.8 km/h 54% 0.0 mm CLR
03:25 13.1 °C 3.4 °C 1023.8 hPa SW 10.0 km/h 20.4 km/h 52% 0.0 mm CLR
03:30 13.4 °C 3.2 °C 1023.8 hPa South 12.2 km/h 18.3 km/h 50% 0.0 mm CLR
03:35 13.7 °C 2.6 °C 1023.6 hPa SW 12.2 km/h 20.4 km/h 47% 0.0 mm CLR
03:40 13.7 °C 2.6 °C 1023.6 hPa SW 13.7 km/h 14.8 km/h 47% 0.0 mm CLR
03:45 13.7 °C 2.9 °C 1023.6 hPa SSW 13.7 km/h 18.5 km/h 48% 0.0 mm CLR
03:50 13.6 °C 2.5 °C 1023.3 hPa SW 10.3 km/h 20.4 km/h 47% 0.0 mm CLR
03:55 13.6 °C 2.5 °C 1023.3 hPa SSW 10.3 km/h 18.5 km/h 47% 0.0 mm CLR
04:00 13.5 °C 2.1 °C 1023.3 hPa SSW 12.9 km/h 20.9 km/h 46% 0.0 mm CLR
04:05 13.6 °C 1.9 °C 1023.3 hPa South 12.2 km/h 16.7 km/h 45% 0.0 mm CLR
04:10 13.6 °C 1.2 °C 1023.3 hPa SSW 11.9 km/h 18.5 km/h 43% 0.0 mm CLR
04:15 13.7 °C 1.0 °C 1023.3 hPa SW 11.9 km/h 16.7 km/h 42% 0.0 mm CLR
04:20 13.7 °C 1.3 °C 1023.2 hPa SW 11.1 km/h 16.7 km/h 43% 0.0 mm CLR
04:25 13.4 °C 1.1 °C 1023.2 hPa SW 11.1 km/h 18.5 km/h 43% 0.0 mm CLR
04:30 13.3 °C 0.9 °C 1023.2 hPa South 12.2 km/h 16.7 km/h 43% 0.0 mm CLR
04:35 13.4 °C 0.4 °C 1023.2 hPa SSW 12.2 km/h 18.5 km/h 41% 0.0 mm CLR
04:40 13.8 °C 0.4 °C 1023.2 hPa SSW 13.0 km/h 16.7 km/h 40% 0.0 mm CLR
04:45 13.9 °C -0.2 °C 1023.2 hPa SSW 13.0 km/h 20.4 km/h 38% 0.0 mm CLR
04:50 14.1 °C 0.0 °C 1023.0 hPa SSW 13.0 km/h 14.8 km/h 38% 0.0 mm CLR
04:55 14.2 °C -0.3 °C 1023.0 hPa SSW 13.0 km/h 22.2 km/h 37% 0.0 mm CLR
05:00 14.3 °C -0.6 °C 1023.0 hPa SSW 11.3 km/h 22.5 km/h 36% 0.0 mm CLR
05:05 14.6 °C -1.1 °C 1023.1 hPa SSW 11.9 km/h 16.7 km/h 34% 0.0 mm CLR
05:10 14.8 °C -0.9 °C 1023.1 hPa SSW 11.1 km/h 16.7 km/h 34% 0.0 mm CLR
05:15 14.9 °C -1.3 °C 1023.1 hPa SSW 11.1 km/h 16.7 km/h 33% 0.0 mm CLR
05:20 15.1 °C -1.5 °C 1023.2 hPa SSW 11.9 km/h 14.8 km/h 32% 0.0 mm CLR
05:25 15.1 °C -1.9 °C 1023.2 hPa SSW 11.9 km/h 13.0 km/h 31% 0.0 mm CLR
05:30 15.2 °C -1.8 °C 1023.2 hPa SSW 11.1 km/h 14.8 km/h 31% 0.0 mm CLR
05:35 15.2 °C -1.8 °C 1023.3 hPa SSW 11.1 km/h 16.4 km/h 31% 0.0 mm CLR
05:40 15.1 °C -1.9 °C 1023.3 hPa SW 11.1 km/h 16.7 km/h 31% 0.0 mm CLR
05:45 15.1 °C -2.4 °C 1023.3 hPa SSW 11.1 km/h 11.9 km/h 30% 0.0 mm CLR
05:50 15.2 °C -2.3 °C 1023.2 hPa SW 10.0 km/h 16.7 km/h 30% 0.0 mm CLR
05:55 15.3 °C -2.2 °C 1023.2 hPa SSW 10.0 km/h 16.7 km/h 30% 0.0 mm CLR
06:00 15.3 °C -2.2 °C 1023.2 hPa SSW 9.7 km/h 16.1 km/h 30% 0.0 mm CLR
06:05 15.3 °C -2.2 °C 1023.4 hPa SSW 10.0 km/h 9.3 km/h 30% 0.0 mm CLR
06:10 15.2 °C -2.3 °C 1023.4 hPa SW 6.4 km/h 9.3 km/h 30% 0.0 mm CLR
06:15 14.3 °C -1.4 °C 1023.4 hPa North 6.4 km/h 7.4 km/h 34% 0.0 mm CLR
06:20 13.7 °C 0.0 °C 1023.5 hPa NNW 4.7 km/h 7.4 km/h 39% 0.0 mm CLR
06:25 12.9 °C 0.3 °C 1023.5 hPa NNW 4.7 km/h 7.4 km/h 42% 0.0 mm CLR
06:30 12.1 °C 0.2 °C 1023.5 hPa NNW 5.0 km/h 7.4 km/h 44% 0.0 mm CLR
06:35 11.9 °C -0.9 °C 1023.6 hPa NW 5.0 km/h 9.3 km/h 41% 0.0 mm CLR
06:40 12.2 °C -1.4 °C 1023.6 hPa NW 6.4 km/h 7.4 km/h 39% 0.0 mm CLR
06:45 12.4 °C -0.5 °C 1023.6 hPa NW 6.4 km/h 5.6 km/h 41% 0.0 mm CLR
06:50 12.4 °C -0.5 °C 1023.6 hPa NW 4.7 km/h 7.4 km/h 41% 0.0 mm CLR
06:55 12.4 °C -0.2 °C 1023.6 hPa WSW 4.7 km/h 7.4 km/h 42% 0.0 mm CLR
07:00 12.2 °C -0.3 °C 1023.6 hPa WSW 4.8 km/h 9.7 km/h 42% 0.0 mm CLR
07:05 12.3 °C -0.6 °C 1023.6 hPa SW 5.8 km/h 5.8 km/h 41% 0.0 mm CLR
07:10 12.5 °C -1.1 °C 1023.6 hPa SW 4.7 km/h 7.4 km/h 39% 0.0 mm CLR
07:15 12.6 °C -0.7 °C 1023.6 hPa SW 4.7 km/h 3.7 km/h 40% 0.0 mm CLR
07:20 12.6 °C -0.3 °C 1023.7 hPa SW 3.2 km/h 3.7 km/h 41% 0.0 mm CLR
07:25 12.6 °C -0.7 °C 1023.7 hPa SW 3.2 km/h 3.7 km/h 40% 0.0 mm CLR
07:30 12.6 °C 0.0 °C 1023.7 hPa SW 2.3 km/h   42% 0.0 mm CLR
07:35 12.6 °C 0.0 °C 1024.0 hPa SW 2.3 km/h 1.9 km/h 42% 0.0 mm CLR
07:40 12.6 °C -0.3 °C 1024.0 hPa SW 2.3 km/h 3.7 km/h 41% 0.0 mm CLR
07:45 12.4 °C -0.2 °C 1024.0 hPa WNW 2.3 km/h 9.3 km/h 42% 0.0 mm CLR
07:50 12.4 °C -0.8 °C 1024.1 hPa West 5.8 km/h 9.3 km/h 40% 0.0 mm CLR
07:55 12.7 °C -0.6 °C 1024.1 hPa West 5.8 km/h 8.7 km/h 40% 0.0 mm CLR
08:00 12.8 °C -0.8 °C 1024.1 hPa West 8.0 km/h 11.3 km/h 39% 0.0 mm CLR
08:05 12.9 °C -1.1 °C 1024.2 hPa West 7.6 km/h 10.0 km/h 38% 0.0 mm CLR
08:10 13.1 °C -0.9 °C 1024.2 hPa West 7.6 km/h 7.4 km/h 38% 0.0 mm CLR
08:15 13.2 °C -0.8 °C 1024.2 hPa West 7.6 km/h 7.4 km/h 38% 0.0 mm CLR
08:20 13.3 °C -1.1 °C 1024.3 hPa WSW 5.0 km/h 9.3 km/h 37% 0.0 mm CLR
08:25 13.6 °C -0.4 °C 1024.3 hPa West 5.0 km/h 4.7 km/h 38% 0.0 mm CLR
08:30 13.8 °C -0.7 °C 1024.3 hPa West 5.0 km/h 7.4 km/h 37% 0.0 mm CLR
08:35 14.1 °C -0.8 °C 1024.5 hPa West 5.0 km/h 7.4 km/h 36% 0.0 mm CLR
08:40 14.3 °C -0.6 °C 1024.5 hPa West 4.7 km/h 5.6 km/h 36% 0.0 mm CLR
08:45 14.7 °C -0.6 °C 1024.5 hPa West 4.7 km/h 4.7 km/h 35% 0.0 mm CLR
08:50 15.1 °C -0.7 °C 1024.6 hPa SW 3.2 km/h 7.4 km/h 34% 0.0 mm CLR
08:55 15.3 °C -0.9 °C 1024.6 hPa SW 3.2 km/h 5.6 km/h 33% 0.0 mm CLR
09:00 15.4 °C -1.2 °C 1024.6 hPa SW 3.2 km/h 8.0 km/h 32% 0.0 mm CLR
09:05 15.6 °C -1.5 °C 1024.6 hPa WSW 3.9 km/h 7.4 km/h 31% 0.0 mm CLR
09:10 15.7 °C -1.4 °C 1024.6 hPa WSW 5.0 km/h 3.7 km/h 31% 0.0 mm CLR
09:15 15.9 °C -1.7 °C 1024.6 hPa WSW 5.0 km/h 5.6 km/h 30% 0.0 mm CLR
09:20 16.1 °C -1.9 °C 1024.7 hPa WSW 3.2 km/h 9.3 km/h 29% 0.0 mm CLR
09:25 16.2 °C -1.9 °C 1024.7 hPa WSW 3.2 km/h 5.0 km/h 29% 0.0 mm CLR
09:30 16.3 °C -1.8 °C 1024.7 hPa WSW 5.0 km/h 7.4 km/h 29% 0.0 mm CLR
09:35 16.4 °C -2.2 °C 1024.7 hPa WSW 5.0 km/h 9.3 km/h 28% 0.0 mm CLR
09:40 16.5 °C -2.1 °C 1024.7 hPa South 5.8 km/h 7.4 km/h 28% 0.0 mm CLR
09:45 16.7 °C -1.4 °C 1024.7 hPa WSW 5.8 km/h 5.6 km/h 29% 0.0 mm CLR
09:50 16.9 °C -1.3 °C 1024.7 hPa West 5.0 km/h 4.7 km/h 29% 0.0 mm CLR
09:55 17.2 °C -1.5 °C 1024.7 hPa West 5.0 km/h 5.0 km/h 28% 0.0 mm CLR
10:00 17.4 °C -1.3 °C 1024.7 hPa West 3.2 km/h 8.0 km/h 28% 0.0 mm CLR
10:05 17.7 °C -1.1 °C 1024.8 hPa SSW 3.9 km/h 5.6 km/h 28% 0.0 mm CLR
10:10 17.9 °C -1.4 °C 1024.8 hPa SW 4.7 km/h 7.4 km/h 27% 0.0 mm CLR
10:15 18.1 °C -1.2 °C 1024.8 hPa SW 4.7 km/h 7.6 km/h 27% 0.0 mm CLR
10:20 18.2 °C -1.7 °C 1024.9 hPa South 3.9 km/h 8.7 km/h 26% 0.0 mm CLR
10:25 18.4 °C -1.4 °C 1024.9 hPa SSW 3.9 km/h 9.3 km/h 26% 0.0 mm CLR
10:30 18.6 °C -1.8 °C 1024.9 hPa WSW 5.0 km/h 7.4 km/h 25% 0.0 mm CLR
10:35 18.8 °C -1.1 °C 1024.8 hPa WSW 5.0 km/h 7.4 km/h 26% 0.0 mm CLR
10:40 18.9 °C -1.6 °C 1024.8 hPa SW 5.8 km/h 7.4 km/h 25% 0.0 mm CLR
10:45 19.1 °C -1.4 °C 1024.8 hPa West 5.8 km/h 7.4 km/h 25% 0.0 mm CLR
10:50 19.2 °C -1.3 °C 1024.7 hPa SSW 5.0 km/h 8.4 km/h 25% 0.0 mm CLR
10:55 19.4 °C -1.2 °C 1024.7 hPa SSW 5.0 km/h 8.7 km/h 25% 0.0 mm CLR
11:00 19.5 °C -1.1 °C 1024.7 hPa SSW 8.0 km/h 11.3 km/h 25% 0.0 mm CLR
11:05 19.8 °C -0.8 °C 1024.6 hPa SW 6.4 km/h 9.3 km/h 25% 0.0 mm CLR
11:10 19.8 °C -0.8 °C 1024.6 hPa WSW 5.8 km/h 5.6 km/h 25% 0.0 mm CLR
11:15 20.0 °C -0.7 °C 1024.6 hPa WSW 5.8 km/h 5.6 km/h 25% 0.0 mm CLR
11:20 20.2 °C -1.1 °C 1024.6 hPa SE 3.9 km/h 10.0 km/h 24% 0.0 mm CLR
11:25 20.6 °C -0.7 °C 1024.6 hPa South 3.9 km/h 7.4 km/h 24% 0.0 mm CLR
11:30 20.8 °C -1.1 °C 1024.6 hPa SW 5.0 km/h 7.4 km/h 23% 0.0 mm CLR
11:35 20.9 °C -1.1 °C 1024.4 hPa South 5.0 km/h 9.3 km/h 23% 0.0 mm CLR
11:40 20.9 °C -1.1 °C 1024.4 hPa SE 5.0 km/h 11.1 km/h 23% 0.0 mm CLR
11:45 21.2 °C -0.8 °C 1024.4 hPa SSE 5.0 km/h 7.4 km/h 23% 0.0 mm CLR
11:50 21.4 °C -1.2 °C 1024.3 hPa SE 4.7 km/h 3.7 km/h 22% 0.0 mm CLR
11:55 21.7 °C -1.6 °C 1024.3 hPa WNW 4.7 km/h 5.6 km/h 21% 0.0 mm CLR
12:00 21.8 °C -1.5 °C 1024.3 hPa East 3.2 km/h 8.0 km/h 21% 0.0 mm CLR
12:05 21.9 °C -2.8 °C 1024.2 hPa NNW 3.2 km/h 7.4 km/h 19% 0.0 mm CLR
12:10 22.1 °C -1.9 °C 1024.2 hPa NNW 2.9 km/h 5.6 km/h 20% 0.0 mm CLR
12:15 22.1 °C -1.9 °C 1024.2 hPa WSW 2.9 km/h 7.4 km/h 20% 0.0 mm CLR
12:20 22.0 °C -2.0 °C 1024.0 hPa WSW 4.7 km/h 6.9 km/h 20% 0.0 mm CLR
12:25 22.3 °C -1.1 °C 1024.0 hPa ENE 4.7 km/h 7.4 km/h 21% 0.0 mm CLR
12:30 22.6 °C -1.5 °C 1024.0 hPa ESE 3.2 km/h 4.7 km/h 20% 0.0 mm CLR
12:35 22.8 °C -1.3 °C 1023.9 hPa NE 3.2 km/h 7.4 km/h 20% 0.0 mm CLR
12:40 22.7 °C -1.4 °C 1023.9 hPa WNW 4.7 km/h 7.4 km/h 20% 0.0 mm CLR
12:45 22.8 °C -1.3 °C 1023.9 hPa WNW 4.7 km/h 5.6 km/h 20% 0.0 mm CLR
12:50 22.9 °C -1.3 °C 1023.7 hPa NW 3.2 km/h 7.4 km/h 20% 0.0 mm CLR
12:55 22.8 °C -1.3 °C 1023.7 hPa SW 3.2 km/h 7.4 km/h 20% 0.0 mm CLR
13:00 22.9 °C -1.3 °C 1023.7 hPa West 3.2 km/h 9.7 km/h 20% 0.0 mm CLR
13:05 23.0 °C -1.2 °C 1023.5 hPa North 4.7 km/h 6.4 km/h 20% 0.0 mm CLR
13:10 23.2 °C -1.0 °C 1023.5 hPa NNE 3.9 km/h 13.0 km/h 20% 0.0 mm CLR
13:15 23.2 °C -1.0 °C 1023.5 hPa WSW 3.9 km/h 5.6 km/h 20% 0.0 mm CLR
13:20 23.4 °C -0.8 °C 1023.3 hPa East 4.7 km/h 11.1 km/h 20% 0.0 mm CLR
13:25 23.2 °C -1.0 °C 1023.3 hPa WSW 4.7 km/h 7.4 km/h 20% 0.0 mm CLR
13:30 23.3 °C -0.9 °C 1023.3 hPa West 5.0 km/h 5.0 km/h 20% 0.0 mm CLR
13:35 23.6 °C -0.7 °C 1023.0 hPa NE 5.0 km/h 11.9 km/h 20% 0.0 mm CLR
13:40 23.6 °C -0.7 °C 1023.0 hPa East 4.7 km/h 5.6 km/h 20% 0.0 mm CLR
13:45 23.7 °C -0.6 °C 1023.0 hPa NNW 4.7 km/h 11.1 km/h 20% 0.0 mm CLR
13:50 23.8 °C -0.5 °C 1022.7 hPa NE 4.7 km/h 16.7 km/h 20% 0.0 mm CLR
13:55 23.7 °C -0.6 °C 1022.7 hPa WNW 4.7 km/h 7.4 km/h 20% 0.0 mm CLR
14:00 23.7 °C -0.6 °C 1022.7 hPa NNE 8.0 km/h 11.3 km/h 20% 0.0 mm CLR
14:05 23.9 °C -0.4 °C 1022.5 hPa North 8.4 km/h 11.1 km/h 20% 0.0 mm CLR
14:10 24.1 °C -1.0 °C 1022.5 hPa NE 5.8 km/h 11.1 km/h 19% 0.0 mm CLR
14:15 24.2 °C -0.9 °C 1022.5 hPa East 5.8 km/h 9.5 km/h 19% 0.0 mm CLR
14:20 24.2 °C -0.9 °C 1022.2 hPa East 6.9 km/h 13.0 km/h 19% 0.0 mm CLR
14:25 24.2 °C -0.9 °C 1022.2 hPa NNW 6.9 km/h 9.3 km/h 19% 0.0 mm CLR
14:30 24.4 °C -0.7 °C 1022.2 hPa East 6.9 km/h 7.4 km/h 19% 0.0 mm CLR
14:35 24.4 °C -0.7 °C 1022.0 hPa NNW 6.9 km/h 7.4 km/h 19% 0.0 mm CLR
14:40 24.4 °C -0.7 °C 1022.0 hPa NE 5.8 km/h 14.8 km/h 19% 0.0 mm CLR
14:45 24.4 °C -0.7 °C 1022.0 hPa NE 5.8 km/h 13.0 km/h 19% 0.0 mm CLR
14:50 24.5 °C -0.7 °C 1021.9 hPa NE 7.6 km/h 7.4 km/h 19% 0.0 mm CLR
14:55 24.6 °C -0.6 °C 1021.9 hPa NNW 7.6 km/h 7.4 km/h 19% 0.0 mm CLR
15:00 24.8 °C 0.3 °C 1021.9 hPa North 3.2 km/h 8.0 km/h 20% 0.0 mm CLR
15:05 24.8 °C 0.3 °C 1021.9 hPa NE 3.9 km/h 13.0 km/h 20% 0.0 mm CLR
15:10 24.7 °C 0.2 °C 1021.9 hPa NE 8.4 km/h 13.0 km/h 20% 0.0 mm CLR
15:15 24.8 °C 0.3 °C 1021.9 hPa ENE 8.4 km/h 13.7 km/h 20% 0.0 mm CLR
15:20 24.8 °C 0.3 °C 1021.6 hPa NE 6.9 km/h 11.1 km/h 20% 0.0 mm CLR
15:25 24.9 °C 0.4 °C 1021.6 hPa NNW 6.9 km/h 9.3 km/h 20% 0.0 mm CLR
15:30 24.9 °C 0.4 °C 1021.6 hPa NE 6.4 km/h 7.4 km/h 20% 0.0 mm CLR
15:35 24.9 °C 0.4 °C 1021.5 hPa East 6.4 km/h 13.0 km/h 20% 0.0 mm CLR
15:40 24.8 °C 1.0 °C 1021.5 hPa ENE 7.6 km/h 16.7 km/h 21% 0.0 mm CLR
15:45 24.7 °C 1.6 °C 1021.5 hPa NNE 7.6 km/h 11.1 km/h 22% 0.0 mm CLR
15:50 24.7 °C 1.6 °C 1021.5 hPa ENE 8.7 km/h 14.8 km/h 22% 0.0 mm CLR
15:55 24.8 °C 1.6 °C 1021.5 hPa NE 8.7 km/h 16.7 km/h 22% 0.0 mm CLR
16:00 24.8 °C 1.6 °C 1021.5 hPa NE 9.7 km/h 16.1 km/h 22% 0.0 mm CLR
16:05 24.9 °C 1.7 °C 1021.3 hPa North 8.7 km/h 9.3 km/h 22% 0.0 mm CLR
16:10 24.9 °C 1.7 °C 1021.3 hPa NE 7.6 km/h 7.6 km/h 22% 0.0 mm CLR
16:15 25.1 °C 1.9 °C 1021.3 hPa East 7.6 km/h 9.3 km/h 22% 0.0 mm CLR
16:20 25.1 °C 1.9 °C 1021.3 hPa NNE 5.8 km/h 11.1 km/h 22% 0.0 mm CLR
16:25 25.1 °C 1.9 °C 1021.3 hPa NNE 5.8 km/h 11.1 km/h 22% 0.0 mm CLR
16:30 24.9 °C 2.3 °C 1021.3 hPa East 7.6 km/h 11.1 km/h 23% 0.0 mm CLR
16:35 24.9 °C 2.3 °C 1021.2 hPa NNE 7.6 km/h 13.0 km/h 23% 0.0 mm CLR
16:40 24.9 °C 2.3 °C 1021.2 hPa ESE 8.7 km/h 13.0 km/h 23% 0.0 mm CLR
16:45 24.9 °C 1.7 °C 1021.2 hPa ESE 8.7 km/h 11.1 km/h 22% 0.0 mm CLR
16:50 24.8 °C 2.2 °C 1021.1 hPa ENE 8.4 km/h 11.1 km/h 23% 0.0 mm CLR
16:55 24.8 °C 2.2 °C 1021.1 hPa ESE 8.4 km/h 13.7 km/h 23% 0.0 mm CLR
17:00 24.8 °C 2.2 °C 1021.1 hPa East 8.0 km/h 14.5 km/h 23% 0.0 mm CLR
17:05 24.9 °C 2.3 °C 1021.1 hPa ESE 8.4 km/h 13.0 km/h 23% 0.0 mm CLR
17:10 24.8 °C 2.2 °C 1021.1 hPa ESE 8.4 km/h 17.2 km/h 23% 0.0 mm CLR
17:15 24.6 °C 2.1 °C 1021.1 hPa ESE 8.4 km/h 14.8 km/h 23% 0.0 mm CLR
17:20 24.4 °C 1.9 °C 1021.2 hPa ESE 12.2 km/h 22.2 km/h 23% 0.0 mm CLR
17:25 24.3 °C 1.8 °C 1021.2 hPa SE 12.2 km/h 16.7 km/h 23% 0.0 mm CLR
17:30 24.2 °C 1.7 °C 1021.2 hPa SE 13.0 km/h 20.1 km/h 23% 0.0 mm CLR
17:35 24.1 °C 2.3 °C 1021.2 hPa SE 13.0 km/h 22.2 km/h 24% 0.0 mm CLR
17:40 23.8 °C 2.0 °C 1021.2 hPa SE 15.6 km/h 18.5 km/h 24% 0.0 mm CLR
17:45 23.7 °C 1.9 °C 1021.2 hPa East 15.6 km/h 22.2 km/h 24% 0.0 mm CLR
17:50 23.3 °C 2.2 °C 1021.2 hPa ESE 14.0 km/h 27.8 km/h 25% 0.0 mm CLR
17:55 23.2 °C 2.1 °C 1021.2 hPa ESE 14.0 km/h 29.6 km/h 25% 0.0 mm CLR
18:00 23.1 °C 2.0 °C 1021.2 hPa ESE 19.3 km/h 25.7 km/h 25% 0.0 mm CLR
18:05 22.9 °C 2.4 °C 1021.3 hPa SE 18.3 km/h 20.4 km/h 26% 0.0 mm CLR
18:10 22.7 °C 2.2 °C 1021.3 hPa SE 17.2 km/h 24.1 km/h 26% 0.0 mm CLR
18:15 22.7 °C 2.7 °C 1021.3 hPa SE 17.2 km/h 24.1 km/h 27% 0.0 mm CLR
18:20 22.6 °C 2.7 °C 1021.5 hPa ESE 16.1 km/h 18.5 km/h 27% 0.0 mm CLR
18:25 22.4 °C 2.4 °C 1021.5 hPa ESE 16.1 km/h 14.8 km/h 27% 0.0 mm CLR
18:30 22.3 °C 2.4 °C 1021.5 hPa ESE 14.0 km/h 19.0 km/h 27% 0.0 mm CLR
18:35 22.2 °C 2.8 °C 1021.6 hPa SE 14.0 km/h 20.4 km/h 28% 0.0 mm CLR
18:40 22.0 °C 2.7 °C 1021.6 hPa ESE 13.7 km/h 14.8 km/h 28% 0.0 mm CLR
18:45 21.9 °C 2.6 °C 1021.6 hPa ESE 13.7 km/h 18.5 km/h 28% 0.0 mm CLR
18:50 21.7 °C 2.4 °C 1021.7 hPa ESE 11.9 km/h 22.2 km/h 28% 0.0 mm CLR
18:55 21.6 °C 2.3 °C 1021.7 hPa East 11.9 km/h 14.8 km/h 28% 0.0 mm CLR
19:00 21.4 °C 2.1 °C 1021.7 hPa ESE 11.3 km/h 16.1 km/h 28% 0.0 mm CLR
19:05 21.2 °C 1.9 °C 1021.9 hPa East 11.1 km/h 13.0 km/h 28% 0.0 mm CLR
19:10 21.1 °C 1.9 °C 1021.9 hPa ENE 9.5 km/h 13.0 km/h 28% 0.0 mm CLR
19:15 21.0 °C 2.3 °C 1021.9 hPa NNE 9.5 km/h 14.8 km/h 29% 0.0 mm CLR
19:20 20.9 °C 2.2 °C 1022.0 hPa ENE 8.7 km/h 16.7 km/h 29% 0.0 mm CLR
19:25 20.8 °C 2.1 °C 1022.0 hPa NNE 8.7 km/h 13.0 km/h 29% 0.0 mm CLR
19:30 20.7 °C 2.5 °C 1022.0 hPa ENE 9.5 km/h 13.0 km/h 30% 0.0 mm CLR
19:35 20.4 °C 1.8 °C 1022.1 hPa NE 9.5 km/h 11.1 km/h 29% 0.0 mm CLR
19:40 20.1 °C 1.5 °C 1022.1 hPa NE 8.7 km/h 14.8 km/h 29% 0.0 mm CLR
19:45 19.7 °C 1.6 °C 1022.1 hPa NE 8.7 km/h 16.7 km/h 30% 0.0 mm CLR
19:50 19.3 °C 1.7 °C 1022.3 hPa NNE 11.1 km/h 14.8 km/h 31% 0.0 mm CLR
19:55 18.8 °C 2.2 °C 1022.3 hPa NNE 11.1 km/h 18.5 km/h 33% 0.0 mm CLR
20:00 18.6 °C 2.4 °C 1022.3 hPa NNE 11.3 km/h 19.3 km/h 34% 0.0 mm CLR
20:05 18.2 °C 2.9 °C 1022.5 hPa NNE 11.9 km/h 14.8 km/h 36% 0.0 mm CLR
20:10 17.9 °C 3.0 °C 1022.5 hPa NNE 10.3 km/h 16.7 km/h 37% 0.0 mm CLR
20:15 17.6 °C 3.1 °C 1022.5 hPa NNE 10.3 km/h 13.0 km/h 38% 0.0 mm CLR
20:20 17.4 °C 2.9 °C 1022.6 hPa NNE 10.0 km/h 16.7 km/h 38% 0.0 mm CLR
20:25 17.3 °C 3.2 °C 1022.6 hPa North 10.0 km/h 9.3 km/h 39% 0.0 mm CLR
20:30 17.2 °C 3.4 °C 1022.6 hPa NNE 8.7 km/h 9.3 km/h 40% 0.0 mm CLR
20:35 16.9 °C 3.2 °C 1022.7 hPa NNE 8.7 km/h 13.0 km/h 40% 0.0 mm CLR
20:40 16.8 °C 3.4 °C 1022.7 hPa North 8.7 km/h 9.3 km/h 41% 0.0 mm CLR
20:45 16.7 °C 3.4 °C 1022.7 hPa North 8.7 km/h 7.6 km/h 41% 0.0 mm CLR
20:50 16.6 °C 3.6 °C 1022.9 hPa ENE 5.8 km/h 7.4 km/h 42% 0.0 mm CLR
20:55 16.5 °C 3.6 °C 1022.9 hPa North 5.8 km/h 5.8 km/h 42% 0.0 mm CLR
21:00 16.4 °C 3.8 °C 1022.9 hPa NNE 3.2 km/h 9.7 km/h 43% 0.0 mm CLR
21:05 16.3 °C 3.7 °C 1023.1 hPa NE 3.9 km/h 3.7 km/h 43% 0.0 mm CLR
21:10 16.3 °C 3.7 °C 1023.1 hPa NE 2.9 km/h 5.6 km/h 43% 0.0 mm CLR
21:15 16.2 °C 3.6 °C 1023.1 hPa WNW 2.9 km/h 3.7 km/h 43% 0.0 mm CLR
21:20 16.2 °C 3.9 °C 1023.3 hPa WNW 3.2 km/h 3.7 km/h 44% 0.0 mm CLR
21:25 16.1 °C 3.8 °C 1023.3 hPa WNW 3.2 km/h 5.6 km/h 44% 0.0 mm CLR
21:30 16.0 °C 4.1 °C 1023.3 hPa WNW 2.9 km/h 5.6 km/h 45% 0.0 mm CLR
21:35 15.9 °C 3.9 °C 1023.4 hPa WNW 2.9 km/h 3.7 km/h 45% 0.0 mm CLR
21:40 15.9 °C 4.3 °C 1023.4 hPa WNW 3.2 km/h 5.6 km/h 46% 0.0 mm CLR
21:45 15.8 °C 4.2 °C 1023.4 hPa WNW 3.2 km/h 7.4 km/h 46% 0.0 mm CLR
21:50 15.7 °C 4.4 °C 1023.5 hPa WNW 3.2 km/h 5.6 km/h 47% 0.0 mm CLR
21:55 15.7 °C 4.4 °C 1023.5 hPa WNW 3.2 km/h 3.2 km/h 47% 0.0 mm CLR
22:00 15.7 °C 4.4 °C 1023.5 hPa WNW 3.2 km/h 3.2 km/h 47% 0.0 mm CLR
22:05 15.6 °C 4.6 °C 1023.6 hPa WNW 2.9 km/h 3.7 km/h 48% 0.0 mm CLR
22:10 15.6 °C 4.6 °C 1023.6 hPa Calm     48% 0.0 mm CLR
22:15 15.6 °C 4.9 °C 1023.6 hPa Calm   3.9 km/h 49% 0.0 mm CLR
22:20 15.6 °C 4.9 °C 1023.7 hPa Calm     49% 0.0 mm CLR
22:25 15.5 °C 4.5 °C 1023.7 hPa Calm     48% 0.0 mm CLR
22:30 15.5 °C 4.5 °C 1023.7 hPa Calm     48% 0.0 mm CLR
22:35 15.5 °C 4.5 °C 1023.6 hPa Calm     48% 0.0 mm CLR
22:40 15.5 °C 4.5 °C 1023.6 hPa Calm     48% 0.0 mm CLR
22:45 15.5 °C 4.8 °C 1023.6 hPa Calm     49% 0.0 mm CLR
22:50 15.5 °C 4.8 °C 1023.5 hPa Calm     49% 0.0 mm CLR
22:55 15.4 °C 4.7 °C 1023.5 hPa Calm     49% 0.0 mm CLR
23:00 15.3 °C 4.7 °C 1023.5 hPa Calm     49% 0.0 mm CLR
23:05 15.3 °C 4.6 °C 1023.6 hPa Calm     49% 0.0 mm CLR
23:10 15.2 °C 4.6 °C 1023.6 hPa Calm   5.6 km/h 49% 0.0 mm CLR
23:15 15.2 °C 4.8 °C 1023.6 hPa Calm   3.7 km/h 50% 0.0 mm CLR
23:20 15.1 °C 4.7 °C 1023.6 hPa WNW 2.9 km/h 3.7 km/h 50% 0.0 mm CLR
23:25 15.0 °C 4.4 °C 1023.6 hPa WNW 2.9 km/h 5.6 km/h 49% 0.0 mm CLR
23:30 14.9 °C 4.3 °C 1023.6 hPa WNW 2.9 km/h 3.7 km/h 49% 0.0 mm CLR
23:35 14.9 °C 4.6 °C 1023.5 hPa WNW 2.9 km/h   50% 0.0 mm CLR
23:40 14.8 °C 4.8 °C 1023.5 hPa Calm   3.7 km/h 51% 0.0 mm CLR
23:45 14.7 °C 4.7 °C 1023.5 hPa Calm     51% 0.0 mm CLR
23:50 14.6 °C 4.8 °C 1023.5 hPa Calm     52% 0.0 mm CLR
23:55 14.4 °C 4.7 °C 1023.5 hPa Calm     52% 0.0 mm CLR
Murcia-Puente Tocinos, España
Compliments of Weather Underground - 2.75 mb

La estación de MeteoMurcia.com, publica sus datos en los siguientes proyectos:

Weather Underground PWS IMURCIAP2 Meteoclimatic www.awekas.at

W3Counter
Web Analytics